sensor_id;sensor_type;location;lat;lon;timestamp;pressure;altitude;pressure_sealevel;temperature;humidity
55604;BME280;41468;48.838;9.330;2022-08-21T00:01:03;98429.03;;;16.77;94.12
55604;BME280;41468;48.838;9.330;2022-08-21T00:03:34;98433.34;;;16.78;93.34
55604;BME280;41468;48.838;9.330;2022-08-21T00:06:04;98431.88;;;16.70;93.46
55604;BME280;41468;48.838;9.330;2022-08-21T00:08:39;98429.09;;;16.70;93.50
55604;BME280;41468;48.838;9.330;2022-08-21T00:11:09;98422.94;;;16.58;94.05
55604;BME280;41468;48.838;9.330;2022-08-21T00:13:42;98430.94;;;16.49;94.23
55604;BME280;41468;48.838;9.330;2022-08-21T00:16:12;98424.41;;;16.66;93.23
55604;BME280;41468;48.838;9.330;2022-08-21T00:18:41;98429.03;;;16.42;93.47
55604;BME280;41468;48.838;9.330;2022-08-21T00:21:11;98428.53;;;16.51;93.11
55604;BME280;41468;48.838;9.330;2022-08-21T00:23:41;98421.63;;;16.32;93.66
55604;BME280;41468;48.838;9.330;2022-08-21T00:26:11;98420.91;;;16.25;94.20
55604;BME280;41468;48.838;9.330;2022-08-21T00:28:43;98433.34;;;16.43;93.24
55604;BME280;41468;48.838;9.330;2022-08-21T00:31:16;98418.63;;;16.19;94.45
55604;BME280;41468;48.838;9.330;2022-08-21T00:33:46;98428.06;;;16.18;95.37
55604;BME280;41468;48.838;9.330;2022-08-21T00:36:16;98430.44;;;16.20;93.07
55604;BME280;41468;48.838;9.330;2022-08-21T00:38:45;98425.53;;;16.38;92.16
55604;BME280;41468;48.838;9.330;2022-08-21T00:41:15;98425.88;;;16.40;92.65
55604;BME280;41468;48.838;9.330;2022-08-21T00:44:07;98426.31;;;16.35;92.87
55604;BME280;41468;48.838;9.330;2022-08-21T00:46:38;98424.72;;;16.38;92.56
55604;BME280;41468;48.838;9.330;2022-08-21T00:49:10;98418.34;;;16.44;92.90
55604;BME280;41468;48.838;9.330;2022-08-21T00:51:45;98420.75;;;16.42;93.20
55604;BME280;41468;48.838;9.330;2022-08-21T00:54:17;98422.88;;;16.28;93.36
55604;BME280;41468;48.838;9.330;2022-08-21T00:56:53;98420.84;;;16.32;93.04
55604;BME280;41468;48.838;9.330;2022-08-21T00:59:31;98413.84;;;16.23;93.46
55604;BME280;41468;48.838;9.330;2022-08-21T01:02:02;98412.78;;;16.10;94.61
55604;BME280;41468;48.838;9.330;2022-08-21T01:04:34;98420.19;;;16.20;93.87
55604;BME280;41468;48.838;9.330;2022-08-21T01:07:04;98424.06;;;16.27;93.36
55604;BME280;41468;48.838;9.330;2022-08-21T01:09:35;98420.06;;;16.31;93.37
55604;BME280;41468;48.838;9.330;2022-08-21T01:12:06;98416.75;;;16.06;94.73
55604;BME280;41468;48.838;9.330;2022-08-21T01:14:40;98414.94;;;16.30;94.26
55604;BME280;41468;48.838;9.330;2022-08-21T01:17:12;98418.97;;;16.25;93.98
55604;BME280;41468;48.838;9.330;2022-08-21T01:19:43;98418.69;;;16.12;95.34
55604;BME280;41468;48.838;9.330;2022-08-21T01:22:16;98417.09;;;16.15;95.28
55604;BME280;41468;48.838;9.330;2022-08-21T01:24:46;98417.69;;;16.33;93.74
55604;BME280;41468;48.838;9.330;2022-08-21T01:27:16;98414.00;;;16.09;94.56
55604;BME280;41468;48.838;9.330;2022-08-21T01:29:52;98410.34;;;16.19;93.77
55604;BME280;41468;48.838;9.330;2022-08-21T01:32:23;98413.91;;;16.16;93.35
55604;BME280;41468;48.838;9.330;2022-08-21T01:34:53;98412.22;;;16.26;92.47
55604;BME280;41468;48.838;9.330;2022-08-21T01:37:25;98403.09;;;15.91;94.80
55604;BME280;41468;48.838;9.330;2022-08-21T01:39:55;98408.03;;;16.11;93.77
55604;BME280;41468;48.838;9.330;2022-08-21T01:42:25;98413.66;;;16.00;93.70
55604;BME280;41468;48.838;9.330;2022-08-21T01:44:55;98410.59;;;15.91;94.65
55604;BME280;41468;48.838;9.330;2022-08-21T01:47:25;98410.22;;;15.89;94.09
55604;BME280;41468;48.838;9.330;2022-08-21T01:49:54;98415.25;;;15.97;94.18
55604;BME280;41468;48.838;9.330;2022-08-21T01:52:28;98408.16;;;16.00;93.92
55604;BME280;41468;48.838;9.330;2022-08-21T01:54:58;98409.41;;;15.92;94.53
55604;BME280;41468;48.838;9.330;2022-08-21T01:57:27;98405.81;;;15.95;93.35
55604;BME280;41468;48.838;9.330;2022-08-21T01:59:57;98399.56;;;15.91;93.28
55604;BME280;41468;48.838;9.330;2022-08-21T02:02:27;98405.47;;;15.89;92.75
55604;BME280;41468;48.838;9.330;2022-08-21T02:04:57;98403.94;;;15.88;92.26
55604;BME280;41468;48.838;9.330;2022-08-21T02:07:35;98402.72;;;15.89;91.92
55604;BME280;41468;48.838;9.330;2022-08-21T02:10:08;98392.13;;;15.88;92.26
55604;BME280;41468;48.838;9.330;2022-08-21T02:12:38;98390.53;;;15.87;92.04
55604;BME280;41468;48.838;9.330;2022-08-21T02:15:08;98392.16;;;15.81;91.90
55604;BME280;41468;48.838;9.330;2022-08-21T02:17:40;98398.13;;;15.72;91.37
55604;BME280;41468;48.838;9.330;2022-08-21T02:20:16;98397.72;;;15.77;91.30
55604;BME280;41468;48.838;9.330;2022-08-21T02:22:48;98398.09;;;15.79;91.59
55604;BME280;41468;48.838;9.330;2022-08-21T02:25:20;98395.38;;;15.68;92.18
55604;BME280;41468;48.838;9.330;2022-08-21T02:27:50;98385.69;;;15.49;94.35
55604;BME280;41468;48.838;9.330;2022-08-21T02:30:22;98391.13;;;15.60;94.72
55604;BME280;41468;48.838;9.330;2022-08-21T02:32:52;98388.66;;;15.76;93.45
55604;BME280;41468;48.838;9.330;2022-08-21T02:35:23;98394.59;;;15.71;93.73
55604;BME280;41468;48.838;9.330;2022-08-21T02:37:58;98396.59;;;15.67;92.60
55604;BME280;41468;48.838;9.330;2022-08-21T02:40:35;98390.75;;;15.54;91.98
55604;BME280;41468;48.838;9.330;2022-08-21T02:43:14;98393.25;;;15.38;92.58
55604;BME280;41468;48.838;9.330;2022-08-21T02:45:45;98388.63;;;15.24;95.30
55604;BME280;41468;48.838;9.330;2022-08-21T02:48:16;98396.34;;;15.44;95.11
55604;BME280;41468;48.838;9.330;2022-08-21T02:50:51;98397.44;;;15.57;93.30
55604;BME280;41468;48.838;9.330;2022-08-21T02:53:25;98389.25;;;15.50;93.21
55604;BME280;41468;48.838;9.330;2022-08-21T02:55:57;98396.34;;;15.47;92.60
55604;BME280;41468;48.838;9.330;2022-08-21T02:58:30;98389.22;;;15.53;92.70
55604;BME280;41468;48.838;9.330;2022-08-21T03:01:01;98393.09;;;15.60;91.57
55604;BME280;41468;48.838;9.330;2022-08-21T03:03:31;98386.94;;;15.41;92.92
55604;BME280;41468;48.838;9.330;2022-08-21T03:06:02;98388.59;;;15.31;94.78
55604;BME280;41468;48.838;9.330;2022-08-21T03:08:35;98393.28;;;15.34;94.56
55604;BME280;41468;48.838;9.330;2022-08-21T03:11:05;98394.50;;;15.30;94.79
55604;BME280;41468;48.838;9.330;2022-08-21T03:13:36;98392.56;;;15.23;95.29
55604;BME280;41468;48.838;9.330;2022-08-21T03:16:06;98391.88;;;15.12;95.37
55604;BME280;41468;48.838;9.330;2022-08-21T03:18:36;98386.22;;;15.30;94.79
55604;BME280;41468;48.838;9.330;2022-08-21T03:21:07;98390.97;;;15.29;94.16
55604;BME280;41468;48.838;9.330;2022-08-21T03:23:39;98389.34;;;15.35;93.70
55604;BME280;41468;48.838;9.330;2022-08-21T03:26:10;98392.66;;;15.12;95.27
55604;BME280;41468;48.838;9.330;2022-08-21T03:28:41;98391.88;;;15.12;95.92
55604;BME280;41468;48.838;9.330;2022-08-21T03:31:11;98395.03;;;15.03;96.01
55604;BME280;41468;48.838;9.330;2022-08-21T03:33:40;98389.03;;;15.19;95.50
55604;BME280;41468;48.838;9.330;2022-08-21T03:36:10;98392.88;;;15.36;93.99
55604;BME280;41468;48.838;9.330;2022-08-21T03:38:43;98387.06;;;15.23;94.59
55604;BME280;41468;48.838;9.330;2022-08-21T03:41:12;98395.81;;;15.04;96.03
55604;BME280;41468;48.838;9.330;2022-08-21T03:43:42;98395.78;;;15.11;95.58
55604;BME280;41468;48.838;9.330;2022-08-21T03:46:12;98396.84;;;15.31;94.48
55604;BME280;41468;48.838;9.330;2022-08-21T03:48:42;98400.81;;;15.27;94.17
55604;BME280;41468;48.838;9.330;2022-08-21T03:51:11;98398.50;;;15.18;94.38
55604;BME280;41468;48.838;9.330;2022-08-21T03:53:44;98396.59;;;15.08;95.35
55604;BME280;41468;48.838;9.330;2022-08-21T03:56:14;98402.91;;;15.05;95.76
55604;BME280;41468;48.838;9.330;2022-08-21T03:58:44;98405.69;;;15.01;94.26
55604;BME280;41468;48.838;9.330;2022-08-21T04:01:14;98406.88;;;14.97;92.89
55604;BME280;41468;48.838;9.330;2022-08-21T04:03:44;98401.72;;;15.09;92.07
55604;BME280;41468;48.838;9.330;2022-08-21T04:06:14;98406.84;;;15.04;91.63
55604;BME280;41468;48.838;9.330;2022-08-21T04:08:47;98406.09;;;14.96;91.18
55604;BME280;41468;48.838;9.330;2022-08-21T04:11:16;98401.38;;;14.93;91.28
55604;BME280;41468;48.838;9.330;2022-08-21T04:13:46;98406.97;;;14.79;92.89
55604;BME280;41468;48.838;9.330;2022-08-21T04:16:16;98409.34;;;14.66;92.86
55604;BME280;41468;48.838;9.330;2022-08-21T04:18:46;98411.72;;;14.60;94.00
55604;BME280;41468;48.838;9.330;2022-08-21T04:21:15;98417.63;;;14.55;95.04
55604;BME280;41468;48.838;9.330;2022-08-21T04:23:53;98416.50;;;14.38;96.53
55604;BME280;41468;48.838;9.330;2022-08-21T04:26:24;98421.97;;;14.56;95.09
55604;BME280;41468;48.838;9.330;2022-08-21T04:28:53;98421.56;;;14.68;94.25
55604;BME280;41468;48.838;9.330;2022-08-21T04:31:24;98432.13;;;14.81;95.11
55604;BME280;41468;48.838;9.330;2022-08-21T04:33:55;98429.34;;;14.88;94.20
55604;BME280;41468;48.838;9.330;2022-08-21T04:36:26;98432.44;;;15.04;93.33
55604;BME280;41468;48.838;9.330;2022-08-21T04:38:58;98443.03;;;15.06;92.93
55604;BME280;41468;48.838;9.330;2022-08-21T04:41:29;98441.53;;;14.90;93.57
55604;BME280;41468;48.838;9.330;2022-08-21T04:43:58;98441.91;;;14.93;92.49
55604;BME280;41468;48.838;9.330;2022-08-21T04:46:28;98450.94;;;14.97;92.84
55604;BME280;41468;48.838;9.330;2022-08-21T04:48:58;98449.44;;;14.78;92.95
55604;BME280;41468;48.838;9.330;2022-08-21T04:51:31;98455.75;;;14.78;92.27
55604;BME280;41468;48.838;9.330;2022-08-21T04:54:08;98449.44;;;14.78;92.21
55604;BME280;41468;48.838;9.330;2022-08-21T04:56:42;98449.44;;;14.81;92.09
55604;BME280;41468;48.838;9.330;2022-08-21T04:59:14;98460.06;;;14.79;92.89
55604;BME280;41468;48.838;9.330;2022-08-21T05:01:45;98450.16;;;14.93;91.67
55604;BME280;41468;48.838;9.330;2022-08-21T05:04:18;98465.56;;;14.83;92.70
55604;BME280;41468;48.838;9.330;2022-08-21T05:06:51;98456.44;;;15.00;92.00
55604;BME280;41468;48.838;9.330;2022-08-21T05:09:27;98458.38;;;15.07;91.23
55604;BME280;41468;48.838;9.330;2022-08-21T05:11:57;98465.09;;;15.02;91.66
55604;BME280;41468;48.838;9.330;2022-08-21T05:14:27;98457.22;;;15.04;91.14
55604;BME280;41468;48.838;9.330;2022-08-21T05:16:56;98461.91;;;15.07;91.97
55604;BME280;41468;48.838;9.330;2022-08-21T05:19:26;98456.41;;;15.07;91.95
55604;BME280;41468;48.838;9.330;2022-08-21T05:21:56;98465.06;;;15.06;91.91
55604;BME280;41468;48.838;9.330;2022-08-21T05:24:30;98465.13;;;14.92;92.94
55604;BME280;41468;48.838;9.330;2022-08-21T05:26:59;98462.75;;;14.97;93.20
55604;BME280;41468;48.838;9.330;2022-08-21T05:29:30;98467.03;;;15.05;92.93
55604;BME280;41468;48.838;9.330;2022-08-21T05:31:59;98466.78;;;14.64;95.43
55604;BME280;41468;48.838;9.330;2022-08-21T05:34:29;98470.72;;;14.70;95.70
55604;BME280;41468;48.838;9.330;2022-08-21T05:36:59;98472.25;;;14.85;95.08
55604;BME280;41468;48.838;9.330;2022-08-21T05:39:35;98474.59;;;14.90;95.04
55604;BME280;41468;48.838;9.330;2022-08-21T05:42:25;98467.09;;;14.91;95.42
55604;BME280;41468;48.838;9.330;2022-08-21T05:44:55;98474.53;;;15.01;94.95
55604;BME280;41468;48.838;9.330;2022-08-21T05:47:25;98476.19;;;14.81;95.86
55604;BME280;41468;48.838;9.330;2022-08-21T05:49:55;98476.16;;;14.84;95.89
55604;BME280;41468;48.838;9.330;2022-08-21T05:52:24;98480.13;;;14.62;98.47
55604;BME280;41468;48.838;9.330;2022-08-21T05:54:57;98482.50;;;14.67;98.85
55604;BME280;41468;48.838;9.330;2022-08-21T05:57:27;98477.41;;;14.69;98.71
55604;BME280;41468;48.838;9.330;2022-08-21T05:59:56;98480.47;;;14.89;97.33
55604;BME280;41468;48.838;9.330;2022-08-21T06:02:26;98483.91;;;15.18;96.02
55604;BME280;41468;48.838;9.330;2022-08-21T06:04:57;98489.47;;;15.07;96.61
55604;BME280;41468;48.838;9.330;2022-08-21T06:07:27;98478.13;;;14.87;99.77
55604;BME280;41468;48.838;9.330;2022-08-21T06:09:59;98480.84;;;15.02;97.77
55604;BME280;41468;48.838;9.330;2022-08-21T06:12:29;98479.16;;;15.22;96.14
55604;BME280;41468;48.838;9.330;2022-08-21T06:14:58;98468.44;;;15.39;95.29
55604;BME280;41468;48.838;9.330;2022-08-21T06:17:28;98474.41;;;15.33;96.67
55604;BME280;41468;48.838;9.330;2022-08-21T06:19:58;98477.47;;;15.43;95.96
55604;BME280;41468;48.838;9.330;2022-08-21T06:22:28;98474.31;;;15.48;96.08
55604;BME280;41468;48.838;9.330;2022-08-21T06:25:00;98486.03;;;15.59;96.47
55604;BME280;41468;48.838;9.330;2022-08-21T06:27:30;98479.75;;;15.59;95.70
55604;BME280;41468;48.838;9.330;2022-08-21T06:30:00;98479.63;;;15.73;95.30
55604;BME280;41468;48.838;9.330;2022-08-21T06:32:29;98470.16;;;15.85;94.63
55604;BME280;41468;48.838;9.330;2022-08-21T06:34:59;98469.34;;;15.88;95.68
55604;BME280;41468;48.838;9.330;2022-08-21T06:37:29;98465.19;;;16.10;93.83
55604;BME280;41468;48.838;9.330;2022-08-21T06:40:03;98471.81;;;16.20;92.70
55604;BME280;41468;48.838;9.330;2022-08-21T06:42:38;98475.91;;;16.46;92.26
55604;BME280;41468;48.838;9.330;2022-08-21T06:45:10;98470.97;;;16.68;91.86
55604;BME280;41468;48.838;9.330;2022-08-21T06:47:39;98475.44;;;16.93;88.35
55604;BME280;41468;48.838;9.330;2022-08-21T06:50:09;98474.28;;;17.21;86.17
55604;BME280;41468;48.838;9.330;2022-08-21T06:52:39;98474.13;;;17.35;87.89
55604;BME280;41468;48.838;9.330;2022-08-21T06:55:12;98470.56;;;17.62;86.94
55604;BME280;41468;48.838;9.330;2022-08-21T06:57:47;98460.50;;;17.75;86.09
55604;BME280;41468;48.838;9.330;2022-08-21T07:00:18;98458.69;;;17.92;83.17
55604;BME280;41468;48.838;9.330;2022-08-21T07:02:48;98460.91;;;18.24;82.91
55604;BME280;41468;48.838;9.330;2022-08-21T07:05:18;98473.09;;;18.50;78.89
55604;BME280;41468;48.838;9.330;2022-08-21T07:07:48;98471.38;;;18.80;78.49
55604;BME280;41468;48.838;9.330;2022-08-21T07:10:20;98465.81;;;18.80;76.99
55604;BME280;41468;48.838;9.330;2022-08-21T07:12:51;98470.59;;;18.79;78.80
55604;BME280;41468;48.838;9.330;2022-08-21T07:15:27;98469.03;;;19.18;76.96
55604;BME280;41468;48.838;9.330;2022-08-21T07:17:57;98468.47;;;19.43;74.83
55604;BME280;41468;48.838;9.330;2022-08-21T07:20:29;98463.06;;;19.56;75.36
55604;BME280;41468;48.838;9.330;2022-08-21T07:23:01;98457.97;;;19.71;74.79
55604;BME280;41468;48.838;9.330;2022-08-21T07:25:35;98465.25;;;19.81;75.20
55604;BME280;41468;48.838;9.330;2022-08-21T07:28:05;98464.22;;;20.08;74.28
55604;BME280;41468;48.838;9.330;2022-08-21T07:30:35;98464.47;;;20.13;69.12
55604;BME280;41468;48.838;9.330;2022-08-21T07:33:05;98463.94;;;20.18;68.20
55604;BME280;41468;48.838;9.330;2022-08-21T07:35:34;98455.94;;;20.37;69.68
55604;BME280;41468;48.838;9.330;2022-08-21T07:38:04;98453.25;;;20.50;67.30
55604;BME280;41468;48.838;9.330;2022-08-21T07:40:36;98444.19;;;20.62;67.98
55604;BME280;41468;48.838;9.330;2022-08-21T07:43:06;98447.44;;;20.73;68.79
55604;BME280;41468;48.838;9.330;2022-08-21T07:45:36;98446.75;;;20.98;69.73
55604;BME280;41468;48.838;9.330;2022-08-21T07:48:06;98448.75;;;20.98;70.54
55604;BME280;41468;48.838;9.330;2022-08-21T07:50:36;98442.31;;;21.14;67.66
55604;BME280;41468;48.838;9.330;2022-08-21T07:53:06;98442.91;;;21.21;65.97
55604;BME280;41468;48.838;9.330;2022-08-21T07:55:38;98452.38;;;21.24;69.44
55604;BME280;41468;48.838;9.330;2022-08-21T07:58:08;98450.94;;;21.32;68.63
55604;BME280;41468;48.838;9.330;2022-08-21T08:00:38;98453.84;;;21.41;66.60
55604;BME280;41468;48.838;9.330;2022-08-21T08:03:08;98453.28;;;21.59;66.07
55604;BME280;41468;48.838;9.330;2022-08-21T08:05:38;98446.16;;;21.45;63.23
55604;BME280;41468;48.838;9.330;2022-08-21T08:08:08;98443.47;;;21.80;65.31
55604;BME280;41468;48.838;9.330;2022-08-21T08:10:40;98439.69;;;22.00;62.88
55604;BME280;41468;48.838;9.330;2022-08-21T08:13:10;98433.88;;;22.07;61.15
55604;BME280;41468;48.838;9.330;2022-08-21T08:15:40;98434.31;;;22.18;60.02
55604;BME280;41468;48.838;9.330;2022-08-21T08:18:10;98431.22;;;22.16;62.08
55604;BME280;41468;48.838;9.330;2022-08-21T08:20:40;98431.06;;;22.20;61.65
55604;BME280;41468;48.838;9.330;2022-08-21T08:23:11;98432.19;;;22.22;60.13
55604;BME280;41468;48.838;9.330;2022-08-21T08:25:44;98432.34;;;22.41;61.36
55604;BME280;41468;48.838;9.330;2022-08-21T08:28:13;98428.00;;;22.40;60.55
55604;BME280;41468;48.838;9.330;2022-08-21T08:30:43;98424.91;;;22.59;59.22
55604;BME280;41468;48.838;9.330;2022-08-21T08:33:14;98427.81;;;22.56;55.86
55604;BME280;41468;48.838;9.330;2022-08-21T08:35:46;98414.53;;;22.60;57.31
55604;BME280;41468;48.838;9.330;2022-08-21T08:38:17;98422.31;;;22.65;60.76
55604;BME280;41468;48.838;9.330;2022-08-21T08:40:57;98418.25;;;22.57;59.23
55604;BME280;41468;48.838;9.330;2022-08-21T08:43:30;98415.41;;;22.70;56.52
55604;BME280;41468;48.838;9.330;2022-08-21T08:46:04;98409.84;;;22.92;57.68
55604;BME280;41468;48.838;9.330;2022-08-21T08:48:43;98413.53;;;22.89;60.34
55604;BME280;41468;48.838;9.330;2022-08-21T08:51:22;98413.44;;;23.01;59.39
55604;BME280;41468;48.838;9.330;2022-08-21T08:53:57;98403.97;;;23.30;58.23
55604;BME280;41468;48.838;9.330;2022-08-21T08:56:33;98410.00;;;23.29;57.24
55604;BME280;41468;48.838;9.330;2022-08-21T08:59:08;98408.53;;;23.37;56.61
55604;BME280;41468;48.838;9.330;2022-08-21T09:01:41;98412.78;;;23.51;58.01
55604;BME280;41468;48.838;9.330;2022-08-21T09:04:13;98406.78;;;23.61;56.88
55604;BME280;41468;48.838;9.330;2022-08-21T09:06:56;98406.13;;;23.57;56.76
55604;BME280;41468;48.838;9.330;2022-08-21T09:09:44;98400.25;;;23.64;54.20
55604;BME280;41468;48.838;9.330;2022-08-21T09:12:31;98395.13;;;23.54;53.83
55604;BME280;41468;48.838;9.330;2022-08-21T09:15:09;98403.56;;;23.81;56.05
55604;BME280;41468;48.838;9.330;2022-08-21T09:17:58;98393.91;;;23.73;56.14
55604;BME280;41468;48.838;9.330;2022-08-21T09:20:37;98389.91;;;23.83;56.88
55604;BME280;41468;48.838;9.330;2022-08-21T09:23:17;98390.69;;;23.93;56.86
55604;BME280;41468;48.838;9.330;2022-08-21T09:25:58;98391.22;;;24.19;55.15
55604;BME280;41468;48.838;9.330;2022-08-21T09:28:35;98380.81;;;24.20;53.08
55604;BME280;41468;48.838;9.330;2022-08-21T09:31:08;98382.53;;;24.26;52.55
55604;BME280;41468;48.838;9.330;2022-08-21T09:33:37;98382.25;;;24.33;54.28
55604;BME280;41468;48.838;9.330;2022-08-21T09:36:07;98381.78;;;24.26;51.60
55604;BME280;41468;48.838;9.330;2022-08-21T09:38:37;98380.53;;;24.45;50.79
55604;BME280;41468;48.838;9.330;2022-08-21T09:41:09;98381.78;;;24.44;49.18
55604;BME280;41468;48.838;9.330;2022-08-21T09:43:52;98377.41;;;24.52;50.53
55604;BME280;41468;48.838;9.330;2022-08-21T09:46:24;98370.53;;;24.63;50.92
55604;BME280;41468;48.838;9.330;2022-08-21T09:48:57;98372.91;;;24.55;50.50
55604;BME280;41468;48.838;9.330;2022-08-21T09:51:31;98373.38;;;24.53;50.66
55604;BME280;41468;48.838;9.330;2022-08-21T09:54:13;98367.28;;;24.64;48.05
55604;BME280;41468;48.838;9.330;2022-08-21T09:56:56;98364.81;;;24.66;50.87
55604;BME280;41468;48.838;9.330;2022-08-21T09:59:42;98360.59;;;24.71;48.72
55604;BME280;41468;48.838;9.330;2022-08-21T10:02:26;98362.00;;;24.85;49.66
55604;BME280;41468;48.838;9.330;2022-08-21T10:05:01;98364.88;;;25.09;49.90
55604;BME280;41468;48.838;9.330;2022-08-21T10:07:32;98360.53;;;25.08;47.54
55604;BME280;41468;48.838;9.330;2022-08-21T10:10:04;98355.56;;;25.03;48.10
55604;BME280;41468;48.838;9.330;2022-08-21T10:12:44;98353.84;;;25.14;48.73
55604;BME280;41468;48.838;9.330;2022-08-21T10:15:25;98349.94;;;25.12;48.91
55604;BME280;41468;48.838;9.330;2022-08-21T10:18:05;98354.53;;;25.33;47.33
55604;BME280;41468;48.838;9.330;2022-08-21T10:20:44;98343.16;;;25.37;47.34
55604;BME280;41468;48.838;9.330;2022-08-21T10:23:42;98343.72;;;25.41;45.61
55604;BME280;41468;48.838;9.330;2022-08-21T10:26:24;98343.09;;;25.55;45.51
55604;BME280;41468;48.838;9.330;2022-08-21T10:29:01;98338.13;;;25.41;44.89
55604;BME280;41468;48.838;9.330;2022-08-21T10:31:41;98334.03;;;25.60;44.25
55604;BME280;41468;48.838;9.330;2022-08-21T10:34:26;98335.56;;;25.61;45.51
55604;BME280;41468;48.838;9.330;2022-08-21T10:37:12;98339.06;;;25.47;44.17
55604;BME280;41468;48.838;9.330;2022-08-21T10:39:55;98330.84;;;25.67;44.68
55604;BME280;41468;48.838;9.330;2022-08-21T10:42:36;98333.50;;;25.71;45.01
55604;BME280;41468;48.838;9.330;2022-08-21T10:45:18;98326.97;;;25.89;44.86
55604;BME280;41468;48.838;9.330;2022-08-21T10:47:55;98331.59;;;25.77;43.38
55604;BME280;41468;48.838;9.330;2022-08-21T10:50:30;98321.72;;;25.34;43.50
55604;BME280;41468;48.838;9.330;2022-08-21T10:53:22;98322.84;;;25.60;42.83
55604;BME280;41468;48.838;9.330;2022-08-21T10:56:01;98324.72;;;25.78;41.60
55604;BME280;41468;48.838;9.330;2022-08-21T10:58:35;98318.03;;;26.00;41.66
55604;BME280;41468;48.838;9.330;2022-08-21T11:01:13;98321.81;;;25.73;42.85
55604;BME280;41468;48.838;9.330;2022-08-21T11:03:52;98316.19;;;25.97;43.73
55604;BME280;41468;48.838;9.330;2022-08-21T11:06:29;98322.00;;;26.08;41.32
55604;BME280;41468;48.838;9.330;2022-08-21T11:09:07;98310.19;;;26.28;40.23
55604;BME280;41468;48.838;9.330;2022-08-21T11:11:44;98309.78;;;26.20;41.13
55604;BME280;41468;48.838;9.330;2022-08-21T11:14:34;98307.78;;;26.36;39.20
55604;BME280;41468;48.838;9.330;2022-08-21T11:17:17;98301.28;;;26.59;39.72
55604;BME280;41468;48.838;9.330;2022-08-21T11:19:54;98302.97;;;26.66;40.31
55604;BME280;41468;48.838;9.330;2022-08-21T11:22:33;98308.19;;;26.88;40.96
55604;BME280;41468;48.838;9.330;2022-08-21T11:25:09;98301.41;;;26.80;41.09
55604;BME280;41468;48.838;9.330;2022-08-21T11:27:42;98298.91;;;26.82;39.85
55604;BME280;41468;48.838;9.330;2022-08-21T11:30:14;98303.16;;;26.92;41.55
55604;BME280;41468;48.838;9.330;2022-08-21T11:33:02;98303.06;;;26.86;41.04
55604;BME280;41468;48.838;9.330;2022-08-21T11:35:44;98294.63;;;27.01;41.11
55604;BME280;41468;48.838;9.330;2022-08-21T11:38:24;98297.03;;;27.08;39.90
55604;BME280;41468;48.838;9.330;2022-08-21T11:41:22;98285.22;;;27.04;39.16
55604;BME280;41468;48.838;9.330;2022-08-21T11:43:58;98289.59;;;27.05;40.26
55604;BME280;41468;48.838;9.330;2022-08-21T11:46:48;98283.78;;;27.09;39.67
55604;BME280;41468;48.838;9.330;2022-08-21T11:49:31;98276.97;;;27.15;38.92
55604;BME280;41468;48.838;9.330;2022-08-21T11:52:15;98278.81;;;27.18;36.71
55604;BME280;41468;48.838;9.330;2022-08-21T11:54:52;98275.66;;;27.31;38.87
55604;BME280;41468;48.838;9.330;2022-08-21T11:57:28;98275.94;;;27.48;39.29
55604;BME280;41468;48.838;9.330;2022-08-21T12:00:04;98271.38;;;27.36;38.67
55604;BME280;41468;48.838;9.330;2022-08-21T12:02:39;98269.47;;;27.62;38.13
55604;BME280;41468;48.838;9.330;2022-08-21T12:05:22;98273.34;;;27.65;38.24
55604;BME280;41468;48.838;9.330;2022-08-21T12:08:05;98267.06;;;27.76;37.29
55604;BME280;41468;48.838;9.330;2022-08-21T12:10:37;98271.22;;;27.60;37.35
55604;BME280;41468;48.838;9.330;2022-08-21T12:13:11;98278.94;;;27.65;39.98
55604;BME280;41468;48.838;9.330;2022-08-21T12:16:09;98276.63;;;27.63;38.63
55604;BME280;41468;48.838;9.330;2022-08-21T12:18:40;98276.97;;;27.71;38.37
55604;BME280;41468;48.838;9.330;2022-08-21T12:21:24;98277.91;;;27.83;37.96
55604;BME280;41468;48.838;9.330;2022-08-21T12:24:15;98270.94;;;27.78;36.52
55604;BME280;41468;48.838;9.330;2022-08-21T12:26:50;98259.56;;;27.67;36.61
55604;BME280;41468;48.838;9.330;2022-08-21T12:29:23;98259.94;;;27.75;36.61
55604;BME280;41468;48.838;9.330;2022-08-21T12:32:00;98264.25;;;27.76;37.70
55604;BME280;41468;48.838;9.330;2022-08-21T12:34:35;98255.13;;;27.81;35.82
55604;BME280;41468;48.838;9.330;2022-08-21T12:37:15;98249.00;;;27.82;33.70
55604;BME280;41468;48.838;9.330;2022-08-21T12:39:52;98238.56;;;27.62;36.80
55604;BME280;41468;48.838;9.330;2022-08-21T12:42:31;98237.69;;;27.77;37.16
55604;BME280;41468;48.838;9.330;2022-08-21T12:45:13;98237.09;;;27.67;35.52
55604;BME280;41468;48.838;9.330;2022-08-21T12:47:47;98240.38;;;27.86;35.43
55604;BME280;41468;48.838;9.330;2022-08-21T12:50:21;98237.00;;;27.82;37.27
55604;BME280;41468;48.838;9.330;2022-08-21T12:52:57;98236.47;;;27.78;36.54
55604;BME280;41468;48.838;9.330;2022-08-21T12:55:32;98226.34;;;27.66;34.25
55604;BME280;41468;48.838;9.330;2022-08-21T12:58:05;98235.91;;;27.18;34.43
55604;BME280;41468;48.838;9.330;2022-08-21T13:00:34;98232.22;;;27.27;33.41
55604;BME280;41468;48.838;9.330;2022-08-21T13:03:04;98231.69;;;27.43;37.26
55604;BME280;41468;48.838;9.330;2022-08-21T13:05:36;98236.41;;;27.37;34.90
55604;BME280;41468;48.838;9.330;2022-08-21T13:08:09;98233.31;;;27.50;34.54
55604;BME280;41468;48.838;9.330;2022-08-21T13:10:43;98231.00;;;27.48;36.17
55604;BME280;41468;48.838;9.330;2022-08-21T13:13:20;98234.97;;;27.41;36.53
55604;BME280;41468;48.838;9.330;2022-08-21T13:15:58;98235.69;;;27.57;35.51
55604;BME280;41468;48.838;9.330;2022-08-21T13:18:31;98231.53;;;27.52;36.27
55604;BME280;41468;48.838;9.330;2022-08-21T13:21:04;98230.44;;;27.44;35.02
55604;BME280;41468;48.838;9.330;2022-08-21T13:23:35;98223.53;;;27.45;34.66
55604;BME280;41468;48.838;9.330;2022-08-21T13:26:15;98218.13;;;27.62;33.88
55604;BME280;41468;48.838;9.330;2022-08-21T13:28:46;98214.56;;;27.61;33.67
55604;BME280;41468;48.838;9.330;2022-08-21T13:31:18;98214.53;;;27.41;32.65
55604;BME280;41468;48.838;9.330;2022-08-21T13:33:49;98226.38;;;27.10;32.99